Terminal Aerodrome Forecast
Issued by NWS

Home | Current Version | Previous Version | Graphics & Text | Print | Product List | Glossary On
Versions: 1 2 3 4 5 6 7 8 9 10 11 12 13 14 15 16
040
FTUS43 KMPX 171722
TAFRNH
TAF
KRNH 171722Z 1718/1818 25007KT P6SM OVC015
     FM171900 28009KT P6SM SCT035
     FM180000 28007KT P6SM FEW250
     FM180800 12005KT P6SM BKN100
     FM181500 14013G20KT P6SM SCT025 OVC080=

USA.gov is the U.S. government's official web portal to all federal, state and local government web resources and services.